Time;durP1;ratioP1;P1;durP2;ratioP2;P2;SDS_P1;SDS_P2;PMS_P1;PMS_P2;Temp;Humidity;BMP_temperature;BMP_pressure;BME280_temperature;BME280_humidity;BME280_pressure;Samples;Min_cycle;Max_cycle;Signal;HPM_P1;HPM_P2
2022/01/13 00:01:11;;;;;;;3.95;1.20;;;;;;;20.66;51.15;103123.22;4972570;28;20039;-61
2022/01/13 00:03:37;;;;;;;3.08;0.93;;;;;;;20.82;50.76;103123.84;4972473;28;20038;-61
2022/01/13 00:06:03;;;;;;;2.97;0.90;;;;;;;21.02;50.53;103118.97;4973016;28;20043;-61
2022/01/13 00:08:28;;;;;;;2.38;1.10;;;;;;;21.16;50.41;103117.00;4972930;28;20030;-61
2022/01/13 00:10:53;;;;;;;2.20;1.23;;;;;;;21.17;50.33;103120.56;4973022;28;20019;-61
2022/01/13 00:13:25;;;;;;;1.25;0.95;;;;;;;21.28;50.27;103120.66;4972702;28;20101;-61
2022/01/13 00:16:22;;;;;;;1.35;0.82;;;;;;;21.32;49.91;103115.94;4972727;28;20030;-61
2022/01/13 00:18:48;;;;;;;2.50;0.90;;;;;;;21.33;49.97;103107.81;4972760;28;20038;-61
2022/01/13 00:26:26;;;;;;;2.78;1.42;;;;;;;21.11;50.52;103107.63;4973017;28;20118;-62
2022/01/13 00:28:55;;;;;;;1.88;0.85;;;;;;;21.29;49.89;103105.50;4972740;28;20038;-62
2022/01/13 00:31:27;;;;;;;2.45;1.02;;;;;;;21.27;49.82;103110.94;4972238;28;20489;-62
2022/01/13 00:33:57;;;;;;;2.38;1.25;;;;;;;21.21;49.77;103108.69;4972576;28;20027;-62
2022/01/13 00:36:30;;;;;;;2.33;1.08;;;;;;;21.25;49.75;103110.19;4972815;28;20030;-63
2022/01/13 00:38:57;;;;;;;1.77;0.85;;;;;;;21.22;49.67;103104.19;4972970;28;20033;-62
2022/01/13 00:41:26;;;;;;;1.80;0.90;;;;;;;21.18;49.68;103098.22;4973545;28;20077;-61
2022/01/13 00:43:51;;;;;;;2.92;1.00;;;;;;;21.18;49.56;103103.56;4976115;28;20031;-61
2022/01/13 00:46:25;;;;;;;1.80;0.98;;;;;;;21.20;49.44;103098.97;4976407;28;20027;-61
2022/01/13 00:48:52;;;;;;;1.50;1.13;;;;;;;21.18;49.54;103095.53;4976179;28;20109;-61
2022/01/13 00:51:23;;;;;;;2.05;0.73;;;;;;;21.15;49.49;103098.44;4976237;28;20153;-61
2022/01/13 00:53:49;;;;;;;2.55;0.90;;;;;;;21.13;49.34;103095.00;4976048;28;20430;-61
2022/01/13 00:56:15;;;;;;;0.82;0.80;;;;;;;21.11;49.43;103094.25;4976106;28;20038;-61
2022/01/13 00:58:41;;;;;;;2.92;1.15;;;;;;;21.08;49.44;103091.81;4976157;28;20035;-61
2022/01/13 01:01:07;;;;;;;2.00;0.90;;;;;;;20.94;49.75;103096.31;4975910;28;20034;-61
2022/01/13 01:03:34;;;;;;;2.35;1.02;;;;;;;21.00;49.53;103100.38;4975759;28;20358;-61
2022/01/13 01:06:01;;;;;;;1.98;1.00;;;;;;;20.91;49.73;103096.53;4975952;28;20031;-61
2022/01/13 01:08:26;;;;;;;1.50;0.82;;;;;;;20.87;49.92;103097.69;4975964;28;20030;-61
2022/01/13 01:10:54;;;;;;;3.03;0.98;;;;;;;20.88;50.07;103096.72;4975828;28;20038;-61
2022/01/13 01:13:25;;;;;;;2.60;1.00;;;;;;;20.84;50.16;103100.56;4975846;28;20456;-61
2022/01/13 01:15:54;;;;;;;3.33;1.05;;;;;;;20.97;49.92;103093.44;4975607;28;20081;-61
2022/01/13 01:21:48;;;;;;;2.22;0.98;;;;;;;21.10;49.98;103100.56;4975880;28;20086;-61
2022/01/13 01:29:09;;;;;;;1.70;0.70;;;;;;;21.10;49.88;103103.25;4975692;28;20134;-61
2022/01/13 01:31:38;;;;;;;2.03;1.00;;;;;;;20.68;51.01;103105.28;4974571;28;20069;-61
2022/01/13 01:34:25;;;;;;;2.75;1.02;;;;;;;20.61;51.00;103104.81;4975373;28;20111;-61
2022/01/13 01:36:52;;;;;;;2.78;1.00;;;;;;;20.58;51.16;103103.19;4975355;28;20539;-61
2022/01/13 01:39:17;;;;;;;3.08;1.00;;;;;;;20.85;50.65;103102.28;4975373;28;20050;-61
2022/01/13 01:41:46;;;;;;;3.85;1.40;;;;;;;21.03;49.95;103097.50;4975289;28;20429;-61
2022/01/13 01:44:14;;;;;;;2.25;1.15;;;;;;;20.84;50.22;103095.22;4975256;28;20029;-61
2022/01/13 01:46:45;;;;;;;3.10;0.98;;;;;;;20.74;50.41;103099.50;4975204;28;20037;-61
2022/01/13 01:49:16;;;;;;;3.38;1.35;;;;;;;20.71;50.38;103094.38;4975286;28;20081;-60
2022/01/13 01:51:43;;;;;;;3.55;1.35;;;;;;;20.67;50.39;103090.19;4974950;28;20281;-60
2022/01/13 01:54:09;;;;;;;2.20;1.05;;;;;;;20.32;51.17;103090.72;4974790;28;20492;-60
2022/01/13 01:56:36;;;;;;;3.10;1.20;;;;;;;20.25;51.26;103094.78;4975069;28;20031;-61
2022/01/13 01:59:03;;;;;;;2.78;1.30;;;;;;;20.20;51.40;103090.59;4974883;28;20041;-60
2022/01/13 02:01:29;;;;;;;3.95;1.35;;;;;;;20.27;51.04;103091.03;4974536;28;20147;-60
2022/01/13 02:03:55;;;;;;;2.63;1.27;;;;;;;20.23;51.23;103089.53;4974891;28;20022;-60
2022/01/13 02:06:20;;;;;;;3.72;1.50;;;;;;;20.15;51.30;103095.38;4974930;28;20030;-60
2022/01/13 02:08:46;;;;;;;2.22;1.15;;;;;;;20.14;51.23;103101.69;4974983;28;20110;-60
2022/01/13 02:11:11;;;;;;;2.45;1.20;;;;;;;20.12;51.18;103100.94;4974781;28;20029;-60
2022/01/13 02:13:44;;;;;;;2.50;1.27;;;;;;;20.13;51.36;103099.97;4974455;28;20105;-60
2022/01/13 02:16:26;;;;;;;2.40;0.90;;;;;;;20.30;51.09;103100.66;4974382;28;20046;-60
2022/01/13 02:18:51;;;;;;;4.03;1.20;;;;;;;20.34;51.06;103096.81;4974649;28;20106;-61
2022/01/13 02:21:19;;;;;;;2.47;1.08;;;;;;;20.36;51.16;103100.25;4974698;28;20110;-61
2022/01/13 02:23:44;;;;;;;5.00;1.48;;;;;;;20.38;51.17;103099.19;4973067;28;20544;-61
2022/01/13 02:26:10;;;;;;;2.42;1.40;;;;;;;20.42;51.26;103089.19;4973163;28;20114;-60
2022/01/13 02:28:36;;;;;;;3.72;1.58;;;;;;;20.47;51.23;103094.19;4974532;28;20089;-60
2022/01/13 02:31:03;;;;;;;3.13;1.58;;;;;;;20.50;51.13;103097.50;4974390;28;20035;-60
2022/01/13 02:33:29;;;;;;;2.42;1.02;;;;;;;20.79;50.37;103098.22;4974253;28;20077;-61
2022/01/13 02:35:54;;;;;;;1.95;1.02;;;;;;;20.85;50.15;103086.25;4974190;28;20030;-60
2022/01/13 02:38:20;;;;;;;3.92;1.10;;;;;;;20.87;50.06;103087.00;4974310;28;20022;-60
2022/01/13 02:40:52;;;;;;;2.70;1.27;;;;;;;20.91;49.96;103096.53;4974199;28;20109;-60
2022/01/13 02:43:17;;;;;;;2.70;1.10;;;;;;;20.77;50.17;103091.28;4974089;28;20073;-60
2022/01/13 02:46:02;;;;;;;1.63;0.82;;;;;;;20.76;50.11;103095.75;4973771;28;20113;-60
2022/01/13 02:48:30;;;;;;;1.63;0.95;;;;;;;20.84;50.00;103086.38;4974078;28;20157;-60
2022/01/13 02:50:56;;;;;;;1.55;0.80;;;;;;;20.85;49.95;103102.28;4973981;28;20105;-61
2022/01/13 02:53:22;;;;;;;2.10;0.95;;;;;;;20.67;50.10;103101.72;4974062;28;20165;-61
2022/01/13 02:55:47;;;;;;;2.70;0.93;;;;;;;20.64;50.12;103093.09;4973661;28;20039;-61
2022/01/13 02:58:14;;;;;;;2.55;0.93;;;;;;;20.56;50.24;103094.44;4973827;28;20066;-61
2022/01/13 03:00:40;;;;;;;1.83;0.80;;;;;;;20.54;50.29;103093.69;4973886;28;20069;-61
2022/01/13 03:03:05;;;;;;;3.42;0.95;;;;;;;20.53;50.13;103093.78;4973701;28;20034;-60
2022/01/13 03:05:33;;;;;;;2.20;0.90;;;;;;;20.51;50.13;103091.19;4973319;28;20031;-67
2022/01/13 03:07:58;;;;;;;2.75;0.85;;;;;;;20.48;50.25;103094.09;4973608;28;20018;-61
2022/01/13 03:10:24;;;;;;;1.40;0.60;;;;;;;20.45;50.14;103088.94;4973530;28;20033;-60
2022/01/13 03:12:50;;;;;;;1.08;0.80;;;;;;;20.45;50.03;103090.78;4973700;28;20045;-60
2022/01/13 03:15:15;;;;;;;1.50;0.90;;;;;;;20.45;49.99;103086.28;4973396;28;20442;-60
2022/01/13 03:17:40;;;;;;;3.58;1.38;;;;;;;20.52;49.89;103086.75;4973546;28;20034;-60
2022/01/13 03:20:06;;;;;;;1.25;0.60;;;;;;;20.55;49.82;103084.69;4973184;28;20401;-61
2022/01/13 03:22:32;;;;;;;1.10;0.70;;;;;;;20.56;49.92;103070.41;4973417;28;20054;-61
2022/01/13 03:24:57;;;;;;;1.05;0.60;;;;;;;20.61;50.03;103070.09;4973707;28;20110;-61
2022/01/13 03:27:23;;;;;;;2.60;0.90;;;;;;;20.50;50.35;103065.50;4973519;28;20054;-61
2022/01/13 03:29:49;;;;;;;1.98;0.77;;;;;;;20.59;50.31;103066.69;4973443;28;20065;-61
2022/01/13 03:32:16;;;;;;;2.17;0.90;;;;;;;20.63;50.22;103064.66;4973402;28;20054;-61
2022/01/13 03:34:41;;;;;;;1.77;0.90;;;;;;;20.55;50.54;103063.34;4973259;28;20097;-61
2022/01/13 03:37:08;;;;;;;1.20;0.60;;;;;;;20.52;50.56;103063.56;4973791;28;20481;-61
2022/01/13 03:39:33;;;;;;;1.48;0.60;;;;;;;20.52;50.46;103058.22;4973218;28;20054;-61
2022/01/13 03:42:02;;;;;;;1.17;0.70;;;;;;;20.52;50.50;103058.22;4973216;28;20031;-61
2022/01/13 03:44:27;;;;;;;0.90;0.52;;;;;;;20.63;50.17;103046.84;4973285;28;20065;-61
2022/01/13 03:46:59;;;;;;;1.98;0.60;;;;;;;20.54;50.14;103052.78;4972971;28;20062;-61
2022/01/13 03:49:25;;;;;;;0.95;0.57;;;;;;;20.51;50.29;103050.31;4973181;28;20078;-60
2022/01/13 03:51:59;;;;;;;0.73;0.50;;;;;;;20.57;50.13;103056.09;4972908;28;20436;-60
2022/01/13 03:54:36;;;;;;;1.67;0.65;;;;;;;20.49;50.24;103058.41;4973092;28;20042;-60
2022/01/13 03:57:13;;;;;;;1.00;0.50;;;;;;;20.53;50.08;103059.91;4972536;28;20101;-61
2022/01/13 04:00:24;;;;;;;1.60;0.70;;;;;;;20.55;49.85;103050.00;4973045;28;20081;-60
2022/01/13 04:02:49;;;;;;;1.75;0.60;;;;;;;20.48;49.95;103054.06;4977078;28;20039;-60
2022/01/13 04:05:15;;;;;;;1.33;0.60;;;;;;;20.41;49.94;103052.75;4973004;28;20038;-61
2022/01/13 04:07:40;;;;;;;1.50;0.50;;;;;;;20.40;49.98;103053.72;4972997;28;20031;-60
2022/01/13 04:10:06;;;;;;;1.63;0.40;;;;;;;20.38;50.02;103050.31;4972948;28;20042;-61
2022/01/13 04:12:31;;;;;;;2.20;0.88;;;;;;;20.36;49.94;103046.91;4972897;28;20113;-61
2022/01/13 04:14:59;;;;;;;2.90;0.85;;;;;;;20.34;49.74;103054.13;4972767;28;20034;-71
2022/01/13 04:17:27;;;;;;;1.73;0.77;;;;;;;20.36;49.86;103052.22;4975759;28;20023;-67
2022/01/13 04:19:53;;;;;;;1.75;0.65;;;;;;;20.36;49.94;103054.91;4977201;28;20022;-67
2022/01/13 04:22:19;;;;;;;7.80;0.77;;;;;;;20.38;49.95;103050.31;4976678;28;20114;-67
2022/01/13 04:24:47;;;;;;;1.40;0.55;;;;;;;20.36;50.05;103047.75;4976636;28;20027;-67
2022/01/13 04:27:22;;;;;;;2.03;0.88;;;;;;;20.40;50.09;103054.59;4976209;28;20496;-67
2022/01/13 04:29:59;;;;;;;0.82;0.28;;;;;;;20.39;50.24;103052.00;4976610;28;20030;-67
2022/01/13 04:32:25;;;;;;;1.45;0.70;;;;;;;20.46;50.30;103053.31;4976562;28;20073;-67
2022/01/13 04:34:50;;;;;;;2.33;1.00;;;;;;;20.55;49.98;103058.00;4976456;28;20035;-67
2022/01/13 04:37:15;;;;;;;1.48;0.68;;;;;;;20.59;50.00;103048.84;4976507;28;20054;-67
2022/01/13 04:39:41;;;;;;;1.52;0.60;;;;;;;20.54;50.03;103044.78;4976420;28;20027;-67
2022/01/13 04:42:09;;;;;;;2.55;0.70;;;;;;;20.62;49.94;103046.94;4976085;28;20089;-67
2022/01/13 04:44:34;;;;;;;1.52;0.70;;;;;;;20.67;49.79;103044.81;4976129;28;20038;-67
2022/01/13 04:47:00;;;;;;;1.67;0.45;;;;;;;20.66;49.69;103043.97;4976359;28;20045;-67
2022/01/13 04:49:25;;;;;;;3.15;1.40;;;;;;;20.62;49.77;103044.25;4976408;28;20469;-67
2022/01/13 04:51:51;;;;;;;3.25;0.57;;;;;;;20.59;49.64;103038.19;4975938;28;20023;-67
2022/01/13 04:54:17;;;;;;;2.17;0.75;;;;;;;20.65;49.56;103036.91;4976102;28;20470;-67
2022/01/13 04:59:11;;;;;;;1.70;0.80;;;;;;;20.72;49.26;103042.69;4976241;28;20038;-68
2022/01/13 05:01:38;;;;;;;3.20;0.63;;;;;;;20.73;49.25;103039.03;4975941;28;20070;-67
2022/01/13 05:04:05;;;;;;;0.80;0.47;;;;;;;20.68;49.07;103030.53;4976018;28;20038;-68
2022/01/13 05:06:30;;;;;;;1.73;0.70;;;;;;;20.67;49.08;103034.13;4976506;28;20102;-68
2022/01/13 05:08:55;;;;;;;1.63;0.68;;;;;;;20.60;49.12;103029.22;4975856;28;20114;-68
2022/01/13 05:11:21;;;;;;;3.08;0.90;;;;;;;20.46;49.23;103026.63;4975987;28;20034;-68
2022/01/13 05:13:47;;;;;;;0.98;0.40;;;;;;;20.43;49.44;103026.81;4975594;28;20023;-67
2022/01/13 05:16:47;;;;;;;3.17;0.70;;;;;;;20.41;49.33;103028.75;4975274;28;20042;-67
2022/01/13 05:24:04;;;;;;;2.35;0.90;;;;;;;20.38;49.65;103029.81;4975528;28;20078;-67
2022/01/13 05:26:30;;;;;;;0.77;0.40;;;;;;;20.39;49.90;103025.31;4975837;28;20354;-68
2022/01/13 05:28:55;;;;;;;1.45;0.52;;;;;;;20.46;49.73;103031.97;4974998;28;20030;-68
2022/01/13 05:31:21;;;;;;;1.85;0.57;;;;;;;20.49;49.69;103025.56;4975526;28;20477;-67
2022/01/13 05:33:46;;;;;;;2.42;0.57;;;;;;;20.51;49.74;103027.16;4975465;28;20085;-67
2022/01/13 05:36:13;;;;;;;1.83;0.45;;;;;;;20.54;49.82;103023.44;4975357;28;20603;-68
2022/01/13 05:38:42;;;;;;;2.13;0.75;;;;;;;20.55;49.68;103031.31;4975473;28;20027;-68
2022/01/13 05:41:07;;;;;;;3.28;0.60;;;;;;;20.64;49.54;103023.69;4975426;28;20019;-68
2022/01/13 05:43:32;;;;;;;1.85;0.90;;;;;;;20.68;49.20;103022.50;4975288;28;20053;-68
2022/01/13 05:45:58;;;;;;;3.22;0.73;;;;;;;20.66;49.31;103021.75;4974893;28;20503;-68
2022/01/13 05:48:23;;;;;;;2.13;0.45;;;;;;;20.73;49.07;103023.03;4975215;28;20065;-68
2022/01/13 05:50:49;;;;;;;1.58;0.60;;;;;;;20.71;49.10;103019.59;4975182;28;20046;-68
2022/01/13 05:53:14;;;;;;;0.95;0.55;;;;;;;20.69;48.95;103017.03;4974965;28;20038;-69
2022/01/13 05:55:40;;;;;;;1.15;0.70;;;;;;;20.66;49.08;103014.59;4974895;28;20121;-68
2022/01/13 05:58:06;;;;;;;2.00;0.60;;;;;;;20.65;49.14;103012.88;4975072;28;20026;-68
2022/01/13 06:00:32;;;;;;;1.83;0.70;;;;;;;20.67;48.96;103018.13;4975108;28;20022;-68
2022/01/13 06:02:57;;;;;;;2.17;0.77;;;;;;;20.64;49.08;103013.84;4975113;28;20022;-68
2022/01/13 06:05:23;;;;;;;2.22;0.80;;;;;;;20.63;48.81;103016.63;4975001;28;20031;-68
2022/01/13 06:07:48;;;;;;;1.65;0.70;;;;;;;20.59;48.79;103019.50;4974877;28;20524;-70
2022/01/13 06:10:19;;;;;;;1.88;0.70;;;;;;;20.57;48.67;103018.72;4974848;28;20052;-70
2022/01/13 06:12:46;;;;;;;1.00;0.60;;;;;;;20.56;48.68;103026.84;4974766;28;20018;-70
2022/01/13 06:15:13;;;;;;;1.75;0.57;;;;;;;20.51;48.93;103024.47;4974150;28;20027;-70
2022/01/13 06:17:41;;;;;;;1.92;0.75;;;;;;;20.53;48.64;103033.22;4974636;28;20029;-70
2022/01/13 06:20:08;;;;;;;1.85;0.80;;;;;;;20.52;48.85;103026.19;4974779;28;20425;-70
2022/01/13 06:22:34;;;;;;;2.67;0.73;;;;;;;20.54;48.79;103031.44;4974579;28;20027;-69
2022/01/13 06:25:01;;;;;;;2.40;0.68;;;;;;;20.53;48.91;103027.91;4974489;28;20054;-69
2022/01/13 06:27:27;;;;;;;1.33;0.77;;;;;;;20.56;48.89;103037.53;4974451;28;20031;-68
2022/01/13 06:29:53;;;;;;;2.10;0.63;;;;;;;20.57;49.06;103036.56;4974281;28;20073;-70
2022/01/13 06:32:20;;;;;;;1.27;0.60;;;;;;;20.57;49.07;103042.72;4974406;28;20457;-70
2022/01/13 06:34:45;;;;;;;1.48;0.70;;;;;;;20.63;49.05;103040.66;4974334;28;20506;-70
2022/01/13 06:37:11;;;;;;;1.75;0.70;;;;;;;20.56;49.16;103038.38;4974444;28;20031;-68
2022/01/13 06:39:36;;;;;;;1.92;0.70;;;;;;;20.56;49.17;103043.72;4973507;28;20050;-71
2022/01/13 06:42:02;;;;;;;1.17;0.60;;;;;;;20.62;49.04;103036.25;4974225;28;20397;-70
2022/01/13 06:44:27;;;;;;;1.02;0.55;;;;;;;20.63;48.86;103041.50;4973893;28;20030;-75
2022/01/13 06:46:53;;;;;;;2.88;0.70;;;;;;;20.65;48.98;103038.72;4974132;28;20026;-76
2022/01/13 06:49:18;;;;;;;2.17;0.60;;;;;;;20.59;48.96;103037.34;4974060;28;20031;-68
2022/01/13 06:51:44;;;;;;;1.33;0.68;;;;;;;20.68;48.93;103046.53;4974022;28;20031;-68
2022/01/13 06:54:09;;;;;;;1.52;0.65;;;;;;;20.74;48.74;103043.44;4973903;28;20547;-68
2022/01/13 06:56:34;;;;;;;1.38;0.70;;;;;;;20.77;48.95;103041.41;4974034;28;20034;-69
2022/01/13 06:59:05;;;;;;;1.88;0.80;;;;;;;20.79;49.06;103042.16;4973889;28;20023;-75
2022/01/13 07:01:30;;;;;;;4.15;0.93;;;;;;;20.82;49.18;103042.91;4973902;28;20022;-78
2022/01/13 07:03:56;;;;;;;2.70;0.75;;;;;;;20.84;49.04;103044.50;4973860;28;20026;-84
2022/01/13 07:06:21;;;;;;;3.67;0.60;;;;;;;20.85;48.99;103048.84;4973964;28;20469;-69
2022/01/13 07:08:46;;;;;;;2.03;0.70;;;;;;;20.84;48.92;103046.31;4973718;28;20105;-75
2022/01/13 07:11:12;;;;;;;3.38;0.52;;;;;;;20.84;48.89;103041.81;4973773;28;20027;-75
2022/01/13 07:13:37;;;;;;;2.75;1.00;;;;;;;20.93;48.54;103041.19;4973601;28;20023;-75
2022/01/13 07:16:03;;;;;;;2.38;0.70;;;;;;;20.97;48.38;103040.00;4972934;28;20551;-75
2022/01/13 07:18:29;;;;;;;4.25;0.80;;;;;;;20.94;48.43;103048.22;4973391;28;21287;-75
2022/01/13 07:20:56;;;;;;;1.55;0.73;;;;;;;20.97;48.39;103048.03;4973535;28;20050;-74
2022/01/13 07:23:22;;;;;;;2.83;1.13;;;;;;;20.84;48.72;103047.16;4973406;28;20030;-74
2022/01/13 07:25:47;;;;;;;6.82;0.90;;;;;;;20.81;48.74;103044.69;4973488;28;20030;-67
2022/01/13 07:28:12;;;;;;;2.00;1.02;;;;;;;20.82;48.85;103043.75;4973466;28;20030;-67
2022/01/13 07:30:38;;;;;;;4.13;0.85;;;;;;;20.73;49.04;103053.25;4973407;28;20428;-67
2022/01/13 07:33:03;;;;;;;2.25;0.60;;;;;;;20.71;49.18;103052.50;4973342;28;20432;-67
2022/01/13 07:35:29;;;;;;;4.30;1.48;;;;;;;20.77;49.14;103054.75;4973316;28;20070;-68
2022/01/13 07:37:54;;;;;;;3.50;1.00;;;;;;;20.89;48.46;103050.38;4973230;28;20106;-68
2022/01/13 07:40:20;;;;;;;2.85;0.70;;;;;;;20.81;48.94;103052.72;4971258;28;20070;-65
2022/01/13 07:42:46;;;;;;;9.20;1.00;;;;;;;21.02;48.60;103058.38;4972999;28;20026;-63
2022/01/13 07:45:13;;;;;;;5.93;0.70;;;;;;;21.10;48.43;103055.16;4972753;28;20121;-64
2022/01/13 07:47:39;;;;;;;4.18;0.95;;;;;;;21.08;48.52;103067.78;4973226;28;20023;-65
2022/01/13 07:50:06;;;;;;;5.72;0.70;;;;;;;21.08;48.58;103057.94;4987198;28;20062;-64
2022/01/13 07:52:32;;;;;;;2.95;0.90;;;;;;;21.09;48.19;103056.09;4970825;28;20031;-58
2022/01/13 07:54:57;;;;;;;2.97;1.15;;;;;;;21.06;48.26;103065.19;4971728;28;20470;-62
2022/01/13 07:57:23;;;;;;;2.28;0.63;;;;;;;21.00;48.16;103066.50;4980589;28;20053;-63
2022/01/13 07:59:49;;;;;;;13.75;1.20;;;;;;;20.99;48.05;103061.25;4971940;28;20046;-60
2022/01/13 08:02:14;;;;;;;2.85;1.02;;;;;;;20.84;48.00;103057.84;4972435;28;20041;-62
2022/01/13 08:04:40;;;;;;;5.28;1.17;;;;;;;20.76;48.21;103057.53;4971778;28;20078;-63
2022/01/13 08:07:05;;;;;;;2.33;0.80;;;;;;;20.63;48.59;103052.16;4972833;28;20015;-68
2022/01/13 08:09:30;;;;;;;3.95;0.80;;;;;;;20.59;48.56;103054.19;4971735;28;20062;-67
2022/01/13 08:11:56;;;;;;;4.25;0.90;;;;;;;20.65;48.80;103050.25;4972655;28;20098;-69
2022/01/13 08:14:21;;;;;;;5.40;1.30;;;;;;;20.72;49.30;103058.72;4972273;28;20037;-66
2022/01/13 08:16:49;;;;;;;6.28;1.40;;;;;;;20.72;49.75;103050.69;4972641;28;20491;-69
2022/01/13 08:21:58;;;;;;;4.57;1.10;;;;;;;20.86;50.17;103047.91;4972637;28;20042;-68
2022/01/13 08:24:23;;;;;;;5.75;0.93;;;;;;;20.89;50.40;103045.03;4986873;28;20411;-71
2022/01/13 08:26:49;;;;;;;11.75;1.30;;;;;;;20.95;50.29;103043.72;4971781;28;20023;-67
2022/01/13 08:29:14;;;;;;;12.20;1.63;;;;;;;21.08;49.83;103046.41;4972687;28;20497;-68
2022/01/13 08:31:39;;;;;;;15.55;2.63;;;;;;;21.14;49.62;103046.81;4972873;28;20026;-68
2022/01/13 08:34:06;;;;;;;8.10;0.90;;;;;;;21.18;49.32;103050.13;4972743;28;20027;-67
2022/01/13 08:36:31;;;;;;;6.38;1.30;;;;;;;20.94;47.71;103048.22;4972536;28;20031;-71
2022/01/13 08:38:56;;;;;;;13.30;1.70;;;;;;;20.88;48.78;103045.16;4972631;28;20504;-76
2022/01/13 08:41:22;;;;;;;6.07;0.98;;;;;;;20.75;48.67;103047.81;4972671;28;20085;-72
2022/01/13 08:43:51;;;;;;;6.40;1.20;;;;;;;20.78;48.52;103047.59;4972497;28;20037;-72
2022/01/13 08:46:17;;;;;;;4.03;1.30;;;;;;;20.77;48.56;103045.88;4972604;28;20073;-72
2022/01/13 08:48:42;;;;;;;9.88;1.65;;;;;;;20.67;48.88;103036.81;4972860;28;20439;-72
2022/01/13 08:51:07;;;;;;;5.13;1.00;;;;;;;20.56;49.11;103043.72;4972661;28;20019;-71
2022/01/13 08:53:33;;;;;;;5.68;1.27;;;;;;;20.66;48.81;103045.78;4973089;28;20027;-72
2022/01/13 08:56:00;;;;;;;4.00;1.00;;;;;;;20.63;48.84;103037.97;4972448;28;20039;-71
2022/01/13 08:58:25;;;;;;;3.55;1.00;;;;;;;20.65;48.80;103044.06;4972548;28;20469;-71
2022/01/13 09:00:53;;;;;;;5.47;1.00;;;;;;;20.71;48.58;103040.97;4971999;28;20070;-72
2022/01/13 09:03:18;;;;;;;2.17;0.93;;;;;;;20.59;48.52;103038.19;4974615;28;20023;-72
2022/01/13 09:05:44;;;;;;;4.00;0.82;;;;;;;20.63;48.66;103051.31;4976086;28;20100;-72
2022/01/13 09:08:11;;;;;;;4.00;0.93;;;;;;;20.74;48.37;103046.09;4975914;28;20034;-71
2022/01/13 09:10:39;;;;;;;6.63;1.05;;;;;;;20.71;48.42;103048.97;4975888;28;20041;-70
2022/01/13 09:13:05;;;;;;;3.13;0.90;;;;;;;20.72;48.75;103053.38;4976676;28;20022;-66
2022/01/13 09:17:58;;;;;;;3.83;0.80;;;;;;;20.84;48.45;103062.34;4975754;28;20030;-66
2022/01/13 09:20:24;;;;;;;4.28;0.77;;;;;;;20.79;48.62;103066.19;4975557;28;20022;-66
2022/01/13 09:22:50;;;;;;;3.03;0.90;;;;;;;20.46;49.39;103069.31;4975070;28;20034;-66
2022/01/13 09:25:16;;;;;;;2.63;0.73;;;;;;;20.63;49.25;103070.84;4975645;28;20030;-66
2022/01/13 09:27:42;;;;;;;3.78;0.80;;;;;;;20.73;48.97;103071.94;4975512;28;20457;-66
2022/01/13 09:30:10;;;;;;;3.22;0.90;;;;;;;20.77;48.78;103068.13;4975124;28;20439;-66
2022/01/13 09:32:36;;;;;;;2.38;0.65;;;;;;;20.81;48.83;103068.72;4975287;28;20031;-66
2022/01/13 09:35:05;;;;;;;2.50;0.75;;;;;;;20.82;48.73;103065.13;4975247;28;20034;-66
2022/01/13 09:37:31;;;;;;;3.33;0.95;;;;;;;20.77;48.70;103061.91;4975313;28;20030;-66
2022/01/13 09:39:56;;;;;;;2.33;0.85;;;;;;;20.77;48.65;103064.56;4975418;28;20027;-66
2022/01/13 09:42:24;;;;;;;2.58;0.80;;;;;;;20.80;48.67;103067.03;4975285;28;20041;-66
2022/01/13 09:44:50;;;;;;;3.75;0.90;;;;;;;20.68;48.84;103057.22;4975239;28;20065;-66
2022/01/13 09:47:16;;;;;;;4.22;1.17;;;;;;;20.65;48.80;103058.25;4975376;28;20022;-66
2022/01/13 09:49:43;;;;;;;3.58;1.10;;;;;;;20.65;48.84;103052.06;4974948;28;20030;-66
2022/01/13 09:52:09;;;;;;;3.08;0.73;;;;;;;20.59;48.85;103048.84;4976042;28;20023;-66
2022/01/13 09:54:35;;;;;;;3.13;0.90;;;;;;;20.57;48.93;103056.09;4974894;28;20027;-72
2022/01/13 09:57:00;;;;;;;2.85;1.00;;;;;;;20.57;48.64;103056.09;4983374;28;20026;-67
2022/01/13 09:59:26;;;;;;;2.10;0.75;;;;;;;20.56;48.75;103054.38;4978154;28;20106;-67
2022/01/13 10:01:51;;;;;;;4.47;0.90;;;;;;;20.53;48.86;103064.41;4979832;28;20037;-63
2022/01/13 10:04:18;;;;;;;3.13;0.75;;;;;;;20.62;48.54;103062.94;4983322;28;20073;-63
2022/01/13 10:06:47;;;;;;;2.15;0.80;;;;;;;20.57;48.56;103066.75;4978243;28;20396;-63
2022/01/13 10:09:14;;;;;;;9.30;1.70;;;;;;;20.54;48.72;103061.66;4985598;28;20105;-63
2022/01/13 10:11:48;;;;;;;2.47;0.70;;;;;;;20.58;48.63;103065.81;4977829;28;20081;-63
2022/01/13 10:16:54;;;;;;;2.05;0.77;;;;;;;20.54;48.89;103077.66;4986016;28;20462;-63
2022/01/13 10:19:43;;;;;;;4.68;1.20;;;;;;;20.59;48.93;103075.53;4986454;28;20465;-63
2022/01/13 10:22:35;;;;;;;3.67;1.00;;;;;;;20.63;48.85;103080.69;4975474;28;20026;-63
2022/01/13 10:25:01;;;;;;;2.90;1.17;;;;;;;20.54;49.03;103075.00;4976070;28;20042;-63
2022/01/13 10:27:34;;;;;;;4.20;1.02;;;;;;;20.58;48.87;103073.81;4991963;28;20026;-63
2022/01/13 10:30:16;;;;;;;2.58;1.17;;;;;;;20.50;49.18;103078.84;4985376;28;20084;-63
2022/01/13 10:32:43;;;;;;;2.90;1.52;;;;;;;20.63;48.86;103072.69;4974436;28;20066;-63
2022/01/13 10:35:12;;;;;;;2.58;1.17;;;;;;;20.65;48.86;103073.44;4989605;28;20038;-63
2022/01/13 10:37:40;;;;;;;2.55;1.10;;;;;;;20.73;48.74;103063.06;4993636;28;20018;-63
2022/01/13 10:40:12;;;;;;;3.83;1.75;;;;;;;20.77;48.44;103069.91;4987014;28;20356;-63
2022/01/13 10:45:20;;;;;;;3.47;1.35;;;;;;;20.77;48.51;103069.91;4975219;28;20023;-63
2022/01/13 10:48:15;;;;;;;2.88;1.15;;;;;;;20.85;48.29;103072.88;4979279;28;20026;-63
2022/01/13 10:50:54;;;;;;;3.95;1.15;;;;;;;20.86;48.21;103069.28;4985452;28;20035;-63
2022/01/13 10:53:29;;;;;;;2.65;1.27;;;;;;;20.74;48.29;103060.31;4971932;28;20041;-63
2022/01/13 10:56:00;;;;;;;2.58;1.38;;;;;;;20.67;48.55;103071.50;4983978;28;20522;-63
2022/01/13 10:58:49;;;;;;;;;;;;;;;20.65;48.43;103068.94;4985533;28;20039;-64
2022/01/13 11:01:15;;;;;;;3.30;1.38;;;;;;;20.66;48.49;103067.16;4981115;28;19918;-71
2022/01/13 11:03:43;;;;;;;2.30;1.60;;;;;;;20.57;48.57;103069.44;4978773;28;20023;-66
2022/01/13 11:06:10;;;;;;;4.20;1.60;;;;;;;20.52;48.72;103062.72;4973642;28;20038;-65
2022/01/13 11:08:43;;;;;;;3.85;1.58;;;;;;;20.52;48.72;103057.38;4973483;28;20054;-66
2022/01/13 11:11:20;;;;;;;6.72;1.80;;;;;;;20.42;48.79;103062.50;4974597;28;20022;-66
2022/01/13 11:13:56;;;;;;;2.58;1.50;;;;;;;20.39;48.81;103049.34;4985386;28;20080;-66
2022/01/13 11:16:23;;;;;;;7.50;1.85;;;;;;;20.40;48.86;103056.41;4973114;28;20061;-66
2022/01/13 11:18:49;;;;;;;4.13;1.80;;;;;;;20.50;48.74;103054.81;4973397;28;20031;-66
2022/01/13 11:21:15;;;;;;;4.85;2.53;;;;;;;20.58;48.49;103041.78;4973235;28;20512;-66
2022/01/13 11:23:45;;;;;;;8.40;2.58;;;;;;;20.51;48.72;103047.66;4973344;28;20033;-66
2022/01/13 11:26:12;;;;;;;5.40;1.88;;;;;;;20.50;48.87;103044.13;4972778;28;20058;-67
2022/01/13 11:28:39;;;;;;;4.47;2.25;;;;;;;20.63;48.87;103037.97;4973245;28;20031;-67
2022/01/13 11:31:07;;;;;;;6.93;2.25;;;;;;;20.68;48.61;103030.53;4973255;28;20038;-68
2022/01/13 11:33:33;;;;;;;2.83;1.73;;;;;;;20.71;48.75;103040.97;4973278;28;20023;-68
2022/01/13 11:35:59;;;;;;;6.70;2.92;;;;;;;20.73;48.62;103031.03;4973083;28;20432;-67
2022/01/13 11:38:28;;;;;;;5.47;2.50;;;;;;;20.74;48.51;103030.09;4972919;28;20038;-67
2022/01/13 11:40:59;;;;;;;3.88;2.30;;;;;;;20.75;48.53;103029.09;4973152;28;20117;-67
2022/01/13 11:43:26;;;;;;;5.63;2.30;;;;;;;20.82;48.35;103018.88;4973205;28;20023;-67
2022/01/13 11:45:52;;;;;;;4.18;2.30;;;;;;;20.86;48.28;103017.69;4973271;28;20183;-67
2022/01/13 11:48:24;;;;;;;4.30;2.22;;;;;;;20.87;48.29;103017.56;4973189;28;20486;-67
2022/01/13 11:50:54;;;;;;;9.00;3.00;;;;;;;20.78;48.50;103016.41;4972905;28;20800;-68
2022/01/13 11:53:31;;;;;;;4.78;2.53;;;;;;;20.75;48.51;103016.63;4972760;28;20545;-68
2022/01/13 11:55:57;;;;;;;4.60;2.60;;;;;;;20.81;48.20;103015.31;4972787;28;20038;-68
2022/01/13 11:58:31;;;;;;;5.95;2.45;;;;;;;20.87;48.05;103012.22;4972914;28;20437;-67